createdAt,value
2022-12-12T00:00:14.061Z,3.00
2022-12-12T00:02:41.752Z,3.10
2022-12-12T00:05:10.377Z,3.10
2022-12-12T00:07:37.342Z,3.10
2022-12-12T00:10:05.069Z,3.00
2022-12-12T00:12:31.789Z,3.00
2022-12-12T00:14:58.534Z,3.00
2022-12-12T00:17:25.379Z,3.00
2022-12-12T00:19:52.259Z,3.10
2022-12-12T00:22:19.008Z,3.00
2022-12-12T00:24:45.813Z,3.00
2022-12-12T00:27:12.555Z,3.00
2022-12-12T00:29:39.318Z,3.00
2022-12-12T00:32:06.110Z,2.90
2022-12-12T00:34:33.029Z,2.90
2022-12-12T00:36:59.785Z,2.90
2022-12-12T00:39:26.542Z,3.00
2022-12-12T00:41:54.561Z,3.00
2022-12-12T00:44:21.340Z,3.10
2022-12-12T00:46:48.211Z,3.10
2022-12-12T00:49:15.046Z,3.10
2022-12-12T00:51:43.169Z,2.90
2022-12-12T00:54:10.276Z,2.90
2022-12-12T00:56:37.193Z,2.80
2022-12-12T00:59:04.304Z,2.80
2022-12-12T01:01:33.213Z,2.80
2022-12-12T01:04:00.988Z,2.90
2022-12-12T01:06:28.344Z,2.90
2022-12-12T01:08:55.145Z,2.70
2022-12-12T01:11:22.764Z,2.70
2022-12-12T01:13:52.040Z,2.70
2022-12-12T01:16:19.402Z,2.60
2022-12-12T01:18:46.556Z,2.70
2022-12-12T01:21:17.051Z,2.50
2022-12-12T01:23:44.093Z,2.40
2022-12-12T01:26:14.358Z,2.40
2022-12-12T01:28:42.578Z,2.40
2022-12-12T01:31:09.748Z,2.60
2022-12-12T01:33:36.700Z,2.50
2022-12-12T01:36:04.068Z,2.60
2022-12-12T01:38:30.941Z,2.50
2022-12-12T01:40:57.750Z,2.60
2022-12-12T01:43:27.613Z,2.50
2022-12-12T01:46:01.309Z,2.50
2022-12-12T01:48:34.969Z,2.60
2022-12-12T01:51:06.715Z,2.50
2022-12-12T01:53:34.210Z,2.50
2022-12-12T01:56:05.841Z,2.50
2022-12-12T01:58:33.043Z,2.50
2022-12-12T02:00:59.994Z,2.50
2022-12-12T02:03:27.599Z,2.50
2022-12-12T02:05:59.568Z,2.40
2022-12-12T02:08:27.171Z,2.40
2022-12-12T02:10:54.074Z,2.30
2022-12-12T02:13:28.793Z,2.40
2022-12-12T02:16:04.397Z,2.40
2022-12-12T02:18:38.899Z,2.30
2022-12-12T02:21:24.484Z,2.30
2022-12-12T02:24:02.610Z,2.30
2022-12-12T02:26:57.841Z,2.30
2022-12-12T02:29:58.395Z,2.30
2022-12-12T02:32:43.853Z,2.30
2022-12-12T02:35:33.741Z,2.40
2022-12-12T02:38:03.299Z,2.40
2022-12-12T02:40:40.465Z,2.40
2022-12-12T02:43:18.856Z,2.30
2022-12-12T02:46:00.497Z,2.20
2022-12-12T02:49:00.039Z,2.20
2022-12-12T02:51:29.563Z,2.20
2022-12-12T02:53:59.613Z,2.30
2022-12-12T02:56:47.452Z,2.30
2022-12-12T02:59:34.097Z,2.30
2022-12-12T03:02:34.735Z,2.20
2022-12-12T03:05:35.263Z,2.20
2022-12-12T03:08:39.440Z,2.10
2022-12-12T03:11:15.637Z,2.10
2022-12-12T03:13:52.581Z,2.10
2022-12-12T03:16:43.284Z,2.10
2022-12-12T03:19:40.044Z,2.20
2022-12-12T03:22:32.576Z,2.20
2022-12-12T03:25:13.939Z,2.10
2022-12-12T03:27:53.816Z,2.10
2022-12-12T03:30:20.877Z,2.10
2022-12-12T03:32:50.378Z,2.00
2022-12-12T03:35:22.754Z,2.00
2022-12-12T03:38:20.475Z,2.00
2022-12-12T03:40:52.012Z,1.70
2022-12-12T03:43:39.595Z,1.80
2022-12-12T03:46:18.525Z,1.80
2022-12-12T03:49:17.573Z,1.80
2022-12-12T03:51:57.893Z,1.70
2022-12-12T03:54:33.831Z,1.80
2022-12-12T03:57:07.556Z,1.90
2022-12-12T03:59:42.704Z,1.90
2022-12-12T04:02:34.913Z,1.80
2022-12-12T04:05:16.391Z,1.70
2022-12-12T04:08:08.718Z,1.70
2022-12-12T04:11:10.829Z,1.80
2022-12-12T04:13:37.541Z,1.80
2022-12-12T04:16:24.158Z,1.80
2022-12-12T04:19:02.314Z,1.70
2022-12-12T04:22:11.948Z,1.80
2022-12-12T04:24:55.012Z,1.70
2022-12-12T04:27:30.818Z,1.60
2022-12-12T04:30:04.864Z,1.60
2022-12-12T04:32:38.865Z,1.70
2022-12-12T04:35:11.243Z,1.50
2022-12-12T04:37:52.308Z,1.60
2022-12-12T04:40:46.973Z,1.60
2022-12-12T04:43:31.554Z,1.60
2022-12-12T04:46:08.854Z,1.70
2022-12-12T04:48:43.911Z,1.70
2022-12-12T04:51:14.409Z,1.60
2022-12-12T04:53:47.056Z,1.60
2022-12-12T04:56:19.471Z,1.70
2022-12-12T04:58:46.311Z,1.60
2022-12-12T05:01:12.994Z,1.60
2022-12-12T05:03:54.510Z,1.60
2022-12-12T05:06:28.421Z,1.60
2022-12-12T05:08:57.011Z,1.60
2022-12-12T05:11:23.954Z,1.60
2022-12-12T05:13:50.767Z,1.50
2022-12-12T05:16:27.736Z,1.50
2022-12-12T05:18:54.513Z,1.60
2022-12-12T05:21:21.256Z,1.60
2022-12-12T05:23:48.033Z,1.50
2022-12-12T05:29:56.161Z,1.40
2022-12-12T05:32:23.033Z,1.20
2022-12-12T05:34:49.761Z,1.30
2022-12-12T05:37:16.595Z,1.20
2022-12-12T05:39:43.382Z,1.30
2022-12-12T05:42:10.150Z,1.20
2022-12-12T05:44:36.933Z,1.20
2022-12-12T05:47:03.820Z,1.10
2022-12-12T05:49:30.542Z,1.10
2022-12-12T05:51:57.441Z,1.10
2022-12-12T05:54:24.285Z,1.10
2022-12-12T05:56:50.990Z,1.10
2022-12-12T05:59:17.901Z,1.20
2022-12-12T06:01:44.707Z,1.10
2022-12-12T06:04:11.522Z,1.00
2022-12-12T06:06:38.492Z,1.00
2022-12-12T06:09:05.268Z,1.00
2022-12-12T06:11:31.993Z,1.00
2022-12-12T06:13:58.759Z,1.00
2022-12-12T06:16:25.523Z,1.00
2022-12-12T06:18:54.126Z,1.10
2022-12-12T06:21:22.062Z,1.10
2022-12-12T06:23:49.273Z,1.10
2022-12-12T06:26:17.813Z,0.90
2022-12-12T06:28:44.972Z,1.00
2022-12-12T06:31:12.546Z,1.00
2022-12-12T06:33:41.274Z,1.00
2022-12-12T06:36:22.573Z,1.10
2022-12-12T06:39:00.020Z,1.10
2022-12-12T06:41:29.318Z,1.10
2022-12-12T06:43:56.421Z,1.20
2022-12-12T06:46:26.493Z,1.20
2022-12-12T06:48:54.336Z,1.20
2022-12-12T06:51:27.088Z,1.30
2022-12-12T06:53:54.096Z,1.30
2022-12-12T06:56:23.854Z,1.30
2022-12-12T06:58:51.057Z,1.20
2022-12-12T07:01:20.375Z,1.20
2022-12-12T07:03:49.437Z,1.20
2022-12-12T07:06:17.772Z,1.20
2022-12-12T07:08:44.947Z,1.10
2022-12-12T07:11:15.364Z,1.10
2022-12-12T07:13:42.286Z,1.10
2022-12-12T07:16:09.687Z,1.20
2022-12-12T07:18:36.612Z,1.10
2022-12-12T07:21:08.560Z,1.10
2022-12-12T07:23:36.027Z,1.10
2022-12-12T07:26:13.368Z,1.10
2022-12-12T07:28:40.129Z,1.20
2022-12-12T07:31:09.653Z,1.20
2022-12-12T07:33:43.485Z,1.10
2022-12-12T07:36:12.811Z,1.20
2022-12-12T07:38:40.130Z,1.20
2022-12-12T07:41:16.750Z,1.30
2022-12-12T07:43:45.852Z,1.40
2022-12-12T07:46:20.066Z,1.50
2022-12-12T07:48:47.339Z,1.50
2022-12-12T07:51:14.505Z,1.50
2022-12-12T07:53:41.827Z,1.50
2022-12-12T08:08:33.656Z,1.50
2022-12-12T08:11:00.492Z,1.80
2022-12-12T08:13:27.216Z,1.80
2022-12-12T08:15:54.119Z,1.60
2022-12-12T08:18:20.880Z,1.60
2022-12-12T08:20:47.613Z,1.60
2022-12-12T08:23:14.528Z,1.60
2022-12-12T08:25:41.299Z,1.60
2022-12-12T08:28:08.087Z,1.70
2022-12-12T08:30:34.947Z,1.60
2022-12-12T08:33:07.849Z,1.50
2022-12-12T08:35:34.908Z,1.40
2022-12-12T08:38:02.686Z,1.40
2022-12-12T08:40:29.489Z,1.40
2022-12-12T08:42:56.269Z,1.40
2022-12-12T08:45:23.128Z,1.40
2022-12-12T08:47:49.882Z,1.40
2022-12-12T08:50:17.256Z,1.40
2022-12-12T08:52:44.644Z,1.40
2022-12-12T08:55:11.987Z,1.50
2022-12-12T08:57:38.893Z,1.40
2022-12-12T09:00:07.058Z,1.40
2022-12-12T09:02:33.940Z,1.40
2022-12-12T09:05:00.788Z,1.40
2022-12-12T09:07:27.587Z,1.50
2022-12-12T09:09:54.359Z,1.60
2022-12-12T09:12:21.218Z,1.60
2022-12-12T09:14:47.955Z,1.60
2022-12-12T09:17:14.702Z,1.70
2022-12-12T09:19:41.516Z,1.80
2022-12-12T09:22:08.333Z,1.80
2022-12-12T09:24:35.043Z,1.70
2022-12-12T09:27:02.041Z,1.60
2022-12-12T09:29:28.839Z,1.50
2022-12-12T09:31:55.677Z,1.40
2022-12-12T09:34:22.581Z,1.40
2022-12-12T09:36:49.304Z,1.40
2022-12-12T09:39:16.047Z,1.40
2022-12-12T09:41:42.866Z,1.30
2022-12-12T09:44:18.545Z,1.40
2022-12-12T09:47:00.422Z,1.40
2022-12-12T09:49:50.362Z,1.20
2022-12-12T09:52:32.755Z,1.20
2022-12-12T09:55:02.540Z,1.10
2022-12-12T09:57:53.318Z,1.10
2022-12-12T10:00:20.131Z,1.20
2022-12-12T10:03:17.419Z,1.10
2022-12-12T10:06:28.171Z,1.10
2022-12-12T10:08:45.751Z,1.10
2022-12-12T10:11:37.643Z,1.10
2022-12-12T10:14:06.978Z,1.10
2022-12-12T10:16:34.164Z,1.10
2022-12-12T10:19:08.899Z,1.00
2022-12-12T10:21:40.892Z,1.00
2022-12-12T10:24:35.082Z,1.00
2022-12-12T10:27:10.504Z,1.00
2022-12-12T10:29:41.563Z,0.90
2022-12-12T10:32:14.611Z,0.90
2022-12-12T10:35:01.697Z,0.90
2022-12-12T10:37:37.337Z,0.90
2022-12-12T10:40:19.417Z,1.10
2022-12-12T10:43:15.931Z,1.10
2022-12-12T10:46:04.252Z,1.10
2022-12-12T10:48:31.865Z,1.20
2022-12-12T10:51:05.212Z,1.20
2022-12-12T10:53:32.529Z,1.20
2022-12-12T10:56:00.892Z,1.20
2022-12-12T10:58:38.057Z,1.20
2022-12-12T11:01:13.512Z,1.30
2022-12-12T11:03:45.105Z,1.30
2022-12-12T11:06:29.317Z,1.30
2022-12-12T11:09:23.593Z,1.30
2022-12-12T11:12:09.787Z,1.40
2022-12-12T11:14:40.527Z,1.30
2022-12-12T11:17:26.459Z,1.40
2022-12-12T11:20:00.956Z,1.30
2022-12-12T11:22:30.526Z,1.30
2022-12-12T11:24:57.530Z,1.30
2022-12-12T11:27:31.384Z,1.30
2022-12-12T11:30:03.933Z,1.20
2022-12-12T11:32:32.746Z,1.10
2022-12-12T11:35:03.039Z,1.10
2022-12-12T11:37:39.233Z,1.30
2022-12-12T11:40:17.866Z,1.20
2022-12-12T11:42:44.699Z,1.30
2022-12-12T11:45:14.550Z,1.20
2022-12-12T11:47:46.963Z,1.30
2022-12-12T11:50:26.767Z,1.40
2022-12-12T11:52:56.001Z,1.30
2022-12-12T11:55:54.629Z,1.20
2022-12-12T11:58:31.687Z,1.10
2022-12-12T12:01:19.249Z,0.90
2022-12-12T12:04:10.009Z,1.00
2022-12-12T12:06:49.425Z,1.00
2022-12-12T12:09:34.498Z,1.00
2022-12-12T12:12:15.727Z,1.00
2022-12-12T12:15:15.028Z,1.00
2022-12-12T12:17:47.708Z,1.00
2022-12-12T12:20:36.448Z,1.00
2022-12-12T12:23:14.068Z,1.00
2022-12-12T12:25:53.004Z,0.90
2022-12-12T12:28:37.172Z,1.00
2022-12-12T12:31:15.931Z,1.00
2022-12-12T12:34:19.041Z,0.90
2022-12-12T12:36:59.087Z,0.70
2022-12-12T12:40:01.019Z,0.60
2022-12-12T12:42:49.219Z,0.70
2022-12-12T12:45:45.680Z,0.70
2022-12-12T12:48:41.586Z,0.70
2022-12-12T12:51:31.346Z,0.80
2022-12-12T12:54:13.756Z,0.90
2022-12-12T12:56:49.186Z,1.00
2022-12-12T12:59:22.508Z,0.90
2022-12-12T13:01:51.970Z,0.90
2022-12-12T13:04:51.105Z,0.90
2022-12-12T13:07:41.356Z,0.90
2022-12-12T13:10:24.659Z,0.80
2022-12-12T13:13:05.451Z,0.80
2022-12-12T13:15:43.853Z,0.90
2022-12-12T13:18:16.364Z,0.80
2022-12-12T13:20:51.833Z,0.80
2022-12-12T13:23:54.358Z,0.70
2022-12-12T13:26:33.922Z,0.60
2022-12-12T13:29:15.392Z,0.60
2022-12-12T13:32:26.871Z,0.60
2022-12-12T13:34:58.950Z,0.60
2022-12-12T13:37:26.385Z,0.60
2022-12-12T13:40:06.643Z,0.60
2022-12-12T13:42:54.726Z,0.70
2022-12-12T13:45:43.444Z,0.70
2022-12-12T13:48:30.498Z,0.70
2022-12-12T13:51:28.632Z,0.70
2022-12-12T13:54:12.700Z,0.70
2022-12-12T13:57:05.607Z,0.70
2022-12-12T13:59:32.658Z,0.70
2022-12-12T14:02:21.394Z,0.70
2022-12-12T14:05:10.371Z,0.70
2022-12-12T14:07:38.056Z,0.60
2022-12-12T14:10:26.470Z,0.70
2022-12-12T14:12:54.259Z,0.70
2022-12-12T14:15:32.733Z,0.70
2022-12-12T14:18:02.751Z,0.80
2022-12-12T14:20:34.703Z,0.80
2022-12-12T14:23:13.612Z,0.90
2022-12-12T14:25:41.436Z,0.70
2022-12-12T14:28:21.115Z,0.60
2022-12-12T14:31:02.355Z,0.70
2022-12-12T14:33:43.607Z,0.70
2022-12-12T14:36:52.194Z,0.70
2022-12-12T14:39:45.582Z,0.80
2022-12-12T14:43:20.521Z,0.80
2022-12-12T14:45:51.319Z,0.70
2022-12-12T14:48:34.031Z,0.60
2022-12-12T14:51:10.610Z,0.70
2022-12-12T14:53:37.303Z,0.80
2022-12-12T14:56:29.943Z,0.80
2022-12-12T14:59:02.929Z,0.80
2022-12-12T15:01:40.422Z,0.90
2022-12-12T15:04:11.004Z,1.00
2022-12-12T15:06:38.809Z,0.90
2022-12-12T15:09:29.217Z,0.90
2022-12-12T15:12:10.970Z,1.00
2022-12-12T15:14:39.566Z,1.00
2022-12-12T15:17:15.272Z,1.00
2022-12-12T15:19:50.831Z,1.00
2022-12-12T15:22:26.947Z,0.90
2022-12-12T15:24:55.463Z,0.80
2022-12-12T15:27:40.019Z,0.90
2022-12-12T15:30:32.795Z,1.10
2022-12-12T15:33:01.751Z,1.20
2022-12-12T15:35:28.537Z,1.10
2022-12-12T15:38:02.993Z,1.10
2022-12-12T15:40:31.533Z,0.90
2022-12-12T15:43:04.187Z,0.90
2022-12-12T15:45:40.398Z,0.90
2022-12-12T15:48:13.389Z,0.80
2022-12-12T15:50:43.168Z,0.90
2022-12-12T15:53:23.540Z,1.10
2022-12-12T15:55:58.329Z,1.00
2022-12-12T15:58:33.344Z,0.80
2022-12-12T16:01:20.627Z,0.80
2022-12-12T16:04:02.701Z,0.80
2022-12-12T16:06:48.028Z,0.60
2022-12-12T16:09:17.815Z,0.60
2022-12-12T16:11:58.246Z,0.60
2022-12-12T16:14:25.049Z,0.70
2022-12-12T16:17:06.233Z,0.70
2022-12-12T16:19:33.359Z,0.80
2022-12-12T16:22:19.883Z,0.80
2022-12-12T16:24:48.519Z,0.80
2022-12-12T16:27:15.363Z,0.80
2022-12-12T16:29:42.547Z,0.70
2022-12-12T16:32:18.168Z,0.70
2022-12-12T16:34:45.223Z,0.70
2022-12-12T16:37:18.014Z,0.80
2022-12-12T16:39:45.477Z,0.90
2022-12-12T16:42:14.128Z,1.00
2022-12-12T16:44:40.972Z,0.80
2022-12-12T16:47:18.682Z,0.90
2022-12-12T16:49:45.967Z,0.80
2022-12-12T16:52:17.866Z,0.80
2022-12-12T16:54:52.570Z,0.90
2022-12-12T16:57:20.550Z,1.00
2022-12-12T16:59:47.431Z,1.00
2022-12-12T17:02:20.355Z,1.10
2022-12-12T17:04:48.249Z,1.10
2022-12-12T17:07:15.367Z,1.00
2022-12-12T17:09:42.404Z,0.90
2022-12-12T17:12:11.827Z,1.00
2022-12-12T17:14:38.953Z,1.00
2022-12-12T17:17:06.190Z,1.00
2022-12-12T17:19:33.456Z,1.00
2022-12-12T17:22:00.709Z,1.00
2022-12-12T17:24:28.027Z,1.00
2022-12-12T17:26:55.145Z,0.90
2022-12-12T17:29:22.472Z,1.00
2022-12-12T17:31:49.336Z,1.00
2022-12-12T17:34:16.627Z,0.90
2022-12-12T17:36:43.538Z,0.90
2022-12-12T17:39:11.265Z,1.00
2022-12-12T17:41:38.369Z,1.00
2022-12-12T17:44:05.343Z,1.00
2022-12-12T17:46:32.453Z,0.90
2022-12-12T17:48:59.664Z,0.90
2022-12-12T17:51:27.395Z,1.00
2022-12-12T17:53:54.971Z,1.00
2022-12-12T17:56:24.324Z,0.90
2022-12-12T17:58:51.721Z,0.80
2022-12-12T18:01:22.922Z,0.80
2022-12-12T18:03:51.063Z,0.90
2022-12-12T18:06:19.637Z,0.80
2022-12-12T18:08:47.092Z,0.90
2022-12-12T18:11:16.968Z,0.80
2022-12-12T18:13:45.153Z,0.80
2022-12-12T18:16:13.051Z,0.80
2022-12-12T18:18:40.918Z,0.80
2022-12-12T18:21:23.571Z,0.90
2022-12-12T18:24:00.394Z,0.90
2022-12-12T18:26:27.631Z,1.00
2022-12-12T18:28:57.935Z,1.00
2022-12-12T18:31:25.066Z,1.00
2022-12-12T18:33:53.030Z,1.10
2022-12-12T18:36:22.801Z,1.00
2022-12-12T18:38:50.435Z,0.90
2022-12-12T18:41:17.418Z,0.90
2022-12-12T18:43:44.190Z,1.00
2022-12-12T18:46:17.304Z,1.00
2022-12-12T18:48:46.423Z,0.90
2022-12-12T18:51:18.745Z,0.90
2022-12-12T18:53:46.276Z,0.90
2022-12-12T18:56:18.317Z,0.90
2022-12-12T18:58:45.770Z,0.80
2022-12-12T19:01:16.844Z,0.70
2022-12-12T19:03:45.288Z,0.80
2022-12-12T19:06:15.064Z,0.80
2022-12-12T19:08:42.492Z,0.70
2022-12-12T19:11:10.538Z,0.80
2022-12-12T19:13:38.021Z,0.70
2022-12-12T19:16:11.010Z,0.70
2022-12-12T19:18:38.755Z,0.70
2022-12-12T19:21:08.023Z,0.70
2022-12-12T19:23:35.182Z,0.80
2022-12-12T19:26:14.565Z,0.60
2022-12-12T19:28:42.277Z,0.60
2022-12-12T19:31:15.472Z,0.60
2022-12-12T19:33:45.838Z,0.60
2022-12-12T19:36:21.805Z,0.60
2022-12-12T19:38:48.926Z,0.50
2022-12-12T19:41:17.911Z,0.60
2022-12-12T19:43:46.933Z,0.70
2022-12-12T19:46:16.350Z,0.70
2022-12-12T19:48:44.064Z,0.70
2022-12-12T19:51:17.473Z,0.70
2022-12-12T19:53:46.737Z,0.80
2022-12-12T19:56:17.005Z,0.80
2022-12-12T19:58:44.913Z,0.80
2022-12-12T20:01:18.338Z,0.80
2022-12-12T20:03:53.428Z,0.80
2022-12-12T20:06:20.839Z,0.90
2022-12-12T20:08:48.128Z,0.80
2022-12-12T20:11:17.812Z,0.90
2022-12-12T20:13:49.656Z,0.90
2022-12-12T20:16:18.788Z,0.80
2022-12-12T20:18:47.487Z,0.80
2022-12-12T20:21:36.271Z,0.80
2022-12-12T20:24:01.288Z,0.70
2022-12-12T20:26:30.586Z,0.70
2022-12-12T20:28:59.928Z,0.80
2022-12-12T20:31:33.291Z,0.70
2022-12-12T20:34:00.516Z,0.80
2022-12-12T20:36:33.359Z,0.70
2022-12-12T20:39:02.688Z,0.80
2022-12-12T20:41:33.927Z,0.80
2022-12-12T20:44:01.291Z,0.80
2022-12-12T20:46:31.345Z,0.80
2022-12-12T20:49:00.211Z,0.90
2022-12-12T20:51:59.005Z,0.80
2022-12-12T20:54:19.968Z,0.80
2022-12-12T20:56:46.869Z,0.80
2022-12-12T20:59:14.457Z,0.80
2022-12-12T21:01:41.730Z,0.90
2022-12-12T21:04:09.527Z,0.80
2022-12-12T21:06:44.589Z,0.80
2022-12-12T21:09:16.178Z,0.90
2022-12-12T21:11:44.712Z,0.90
2022-12-12T21:14:11.502Z,0.90
2022-12-12T21:16:39.711Z,0.90
2022-12-12T21:19:09.853Z,0.90
2022-12-12T21:21:37.875Z,0.90
2022-12-12T21:24:05.345Z,0.80
2022-12-12T21:26:32.928Z,0.80
2022-12-12T21:29:01.822Z,0.90
2022-12-12T21:31:32.141Z,0.90
2022-12-12T21:33:59.928Z,0.90
2022-12-12T21:36:28.239Z,0.80
2022-12-12T21:38:56.800Z,0.80
2022-12-12T21:41:23.953Z,0.70
2022-12-12T21:43:50.804Z,0.80
2022-12-12T21:46:20.048Z,0.70
2022-12-12T21:48:47.470Z,0.80
2022-12-12T21:51:16.646Z,0.70
2022-12-12T21:53:43.710Z,0.80
2022-12-12T21:56:18.615Z,0.70
2022-12-12T21:58:46.458Z,0.70
2022-12-12T22:01:14.821Z,0.70
2022-12-12T22:03:42.823Z,0.60
2022-12-12T22:06:22.386Z,0.60
2022-12-12T22:08:49.858Z,0.70
2022-12-12T22:11:33.826Z,0.70
2022-12-12T22:14:06.050Z,0.70
2022-12-12T22:16:33.660Z,0.70
2022-12-12T22:19:05.727Z,0.80
2022-12-12T22:21:33.364Z,0.70
2022-12-12T22:24:00.494Z,0.70
2022-12-12T22:26:29.999Z,0.70
2022-12-12T22:28:59.374Z,0.70
2022-12-12T22:31:31.484Z,0.70
2022-12-12T22:34:04.117Z,0.70
2022-12-12T22:36:33.955Z,0.70
2022-12-12T22:39:01.543Z,0.70
2022-12-12T22:41:29.823Z,0.70
2022-12-12T22:44:02.040Z,0.60
2022-12-12T22:46:29.494Z,0.70
2022-12-12T22:48:59.331Z,0.60
2022-12-12T22:51:28.773Z,0.60
2022-12-12T22:53:57.280Z,0.50
2022-12-12T22:56:24.238Z,0.40
2022-12-12T22:58:51.068Z,0.40
2022-12-12T23:01:19.610Z,0.40
2022-12-12T23:03:46.901Z,0.50
2022-12-12T23:06:16.687Z,0.40
2022-12-12T23:08:44.144Z,0.40
2022-12-12T23:11:16.122Z,0.40
2022-12-12T23:13:44.350Z,0.40
2022-12-12T23:16:14.193Z,0.30
2022-12-12T23:18:41.319Z,0.30
2022-12-12T23:21:16.306Z,0.30
2022-12-12T23:23:44.770Z,0.30
2022-12-12T23:26:15.174Z,0.40
2022-12-12T23:28:43.018Z,0.30
2022-12-12T23:31:12.649Z,0.30
2022-12-12T23:33:39.872Z,0.30
2022-12-12T23:36:12.093Z,0.30
2022-12-12T23:38:39.531Z,0.40
2022-12-12T23:41:08.553Z,0.50
2022-12-12T23:43:35.809Z,0.60
2022-12-12T23:46:08.763Z,0.50
2022-12-12T23:48:35.939Z,0.60
2022-12-12T23:51:02.876Z,0.60
2022-12-12T23:53:32.643Z,0.60
2022-12-12T23:56:04.128Z,0.60
2022-12-12T23:58:30.956Z,0.50
